Time;durP1;ratioP1;P1;durP2;ratioP2;P2;SDS_P1;SDS_P2;PMS_P1;PMS_P2;Temp;Humidity;BMP_temperature;BMP_pressure;BME280_temperature;BME280_humidity;BME280_pressure;Samples;Min_cycle;Max_cycle;Signal;HPM_P1;HPM_P2
2022/06/03 00:00:53;;;;;;;4.97;2.40;;;;;;;;;;6126628;23;20025;-89
2022/06/03 00:03:38;;;;;;;5.47;2.22;;;;;;;;;;6126244;23;20014;-89
2022/06/03 00:06:18;;;;;;;3.13;2.20;;;;;;;;;;6127057;23;20480;-90
2022/06/03 00:08:59;;;;;;;5.45;2.50;;;;;;;;;;6132269;23;20021;-89
2022/06/03 00:11:31;;;;;;;3.55;2.60;;;;;;;;;;6127435;23;20435;-88
2022/06/03 00:14:07;;;;;;;4.32;2.38;;;;;;;;;;6126223;23;20056;-89
2022/06/03 00:16:48;;;;;;;2.60;2.30;;;;;;;;;;6126551;23;20032;-89
2022/06/03 00:19:33;;;;;;;3.83;2.58;;;;;;;;;;6128534;23;20002;-89
2022/06/03 00:22:25;;;;;;;4.03;2.45;;;;;;;;;;6126744;23;20014;-89
2022/06/03 00:25:06;;;;;;;3.13;2.22;;;;;;;;;;6093756;23;20006;-90
2022/06/03 00:27:38;;;;;;;3.00;2.40;;;;;;;;;;6128270;23;20002;-89
2022/06/03 00:30:08;;;;;;;5.25;2.38;;;;;;;;;;6126879;23;20006;-89
2022/06/03 00:32:45;;;;;;;3.38;2.55;;;;;;;;;;6126019;23;20014;-88
2022/06/03 00:35:11;;;;;;;4.90;2.88;;;;;;;;;;6126152;23;20521;-89
2022/06/03 00:37:48;;;;;;;4.13;2.70;;;;;;;;;;6102432;23;20121;-89
2022/06/03 00:40:28;;;;;;;3.13;2.55;;;;;;;;;;6126401;23;20006;-88
2022/06/03 00:43:07;;;;;;;3.70;2.40;;;;;;;;;;6126127;23;20014;-88
2022/06/03 00:45:38;;;;;;;3.67;2.78;;;;;;;;;;6125988;23;20092;-89
2022/06/03 00:48:29;;;;;;;2.80;2.40;;;;;;;;;;6126173;23;20010;-92
2022/06/03 00:51:17;;;;;;;4.80;2.70;;;;;;;;;;6126398;23;20002;-90
2022/06/03 00:54:01;;;;;;;3.05;2.55;;;;;;;;;;6127678;23;20006;-92
2022/06/03 00:56:43;;;;;;;4.53;2.40;;;;;;;;;;6126498;23;20006;-89
2022/06/03 00:59:09;;;;;;;3.65;2.85;;;;;;;;;;6126295;23;20435;-88
2022/06/03 01:01:50;;;;;;;4.22;2.30;;;;;;;;;;6125984;23;20016;-89
2022/06/03 01:04:19;;;;;;;3.20;2.60;;;;;;;;;;6128140;23;20085;-90
2022/06/03 01:07:06;;;;;;;3.25;2.30;;;;;;;;;;6125909;23;20104;-89
2022/06/03 01:09:32;;;;;;;3.45;2.40;;;;;;;;;;6127812;23;20006;-90
2022/06/03 01:12:14;;;;;;;3.65;2.30;;;;;;;;;;6127875;23;20010;-89
2022/06/03 01:14:46;;;;;;;3.92;2.60;;;;;;;;;;6128715;23;20080;-90
2022/06/03 01:17:23;;;;;;;3.35;2.50;;;;;;;;;;6143129;23;20006;-88
2022/06/03 01:19:57;;;;;;;3.83;2.80;;;;;;;;;;6151555;23;20054;-89
2022/06/03 01:22:32;;;;;;;3.92;2.33;;;;;;;;;;6103851;23;20105;-90
2022/06/03 01:25:14;;;;;;;3.13;2.30;;;;;;;;;;6128219;23;20010;-89
2022/06/03 01:27:40;;;;;;;4.90;2.50;;;;;;;;;;6127923;23;20014;-90
2022/06/03 01:30:06;;;;;;;2.88;2.30;;;;;;;;;;6127579;23;20009;-89
2022/06/03 01:32:45;;;;;;;4.03;2.35;;;;;;;;;;6127607;23;20053;-91
2022/06/03 01:35:15;;;;;;;3.47;2.70;;;;;;;;;;6127652;23;20006;-91
2022/06/03 01:37:49;;;;;;;3.58;2.30;;;;;;;;;;6127772;23;20093;-92
2022/06/03 01:40:40;;;;;;;3.22;2.50;;;;;;;;;;6103990;23;20368;-88
2022/06/03 01:43:12;;;;;;;3.28;2.45;;;;;;;;;;6105846;23;20022;-89
2022/06/03 01:46:03;;;;;;;2.65;2.28;;;;;;;;;;6128649;23;20002;-89
2022/06/03 01:48:30;;;;;;;3.25;2.40;;;;;;;;;;6127560;23;20377;-84
2022/06/03 01:50:59;;;;;;;4.00;2.47;;;;;;;;;;6127409;23;20014;-89
2022/06/03 01:53:29;;;;;;;4.88;2.47;;;;;;;;;;6127617;23;20044;-91
2022/06/03 01:55:55;;;;;;;4.28;2.40;;;;;;;;;;6127660;23;20016;-90
2022/06/03 01:58:24;;;;;;;3.45;2.40;;;;;;;;;;6127999;23;20033;-89
2022/06/03 02:00:50;;;;;;;3.22;2.40;;;;;;;;;;6127278;23;20013;-88
2022/06/03 02:03:39;;;;;;;3.40;2.38;;;;;;;;;;6127713;23;20072;-91
2022/06/03 02:06:06;;;;;;;3.08;2.17;;;;;;;;;;6151515;23;20006;-88
2022/06/03 02:08:48;;;;;;;3.25;2.20;;;;;;;;;;6127211;23;20052;-89
2022/06/03 02:11:35;;;;;;;3.25;2.33;;;;;;;;;;6128261;23;20006;-92
2022/06/03 02:14:07;;;;;;;3.63;2.30;;;;;;;;;;6127515;23;20037;-91
2022/06/03 02:16:33;;;;;;;4.32;2.15;;;;;;;;;;6127125;23;20006;-89
2022/06/03 02:18:59;;;;;;;2.67;2.20;;;;;;;;;;6127609;23;20010;-88
2022/06/03 02:21:52;;;;;;;2.67;2.13;;;;;;;;;;6126863;23;20041;-89
2022/06/03 02:24:36;;;;;;;4.70;2.47;;;;;;;;;;6128202;23;20014;-90
2022/06/03 02:27:21;;;;;;;3.08;2.40;;;;;;;;;;6127315;23;19998;-90
2022/06/03 02:32:41;;;;;;;3.00;2.20;;;;;;;;;;6128814;23;20388;-88
2022/06/03 02:47:31;;;;;;;3.92;2.40;;;;;;;;;;6220696;23;20046;-90
2022/06/03 02:50:00;;;;;;;3.75;2.40;;;;;;;;;;6222352;23;20004;-89
2022/06/03 02:52:42;;;;;;;3.08;2.22;;;;;;;;;;6221827;23;20012;-89
2022/06/03 02:55:46;;;;;;;7.35;2.50;;;;;;;;;;6221734;23;20012;-92
2022/06/03 02:58:35;;;;;;;3.38;2.40;;;;;;;;;;6101427;23;20006;-89
2022/06/03 03:01:31;;;;;;;3.40;2.33;;;;;;;;;;6101835;23;20006;-88
2022/06/03 03:04:17;;;;;;;4.45;2.60;;;;;;;;;;6132986;23;20059;-87
2022/06/03 03:07:02;;;;;;;3.33;2.35;;;;;;;;;;6221535;23;20064;-88
2022/06/03 03:09:40;;;;;;;5.22;2.67;;;;;;;;;;6221298;23;20004;-88
2022/06/03 03:12:25;;;;;;;4.72;2.58;;;;;;;;;;6221791;23;20008;-87
2022/06/03 03:14:54;;;;;;;3.72;2.60;;;;;;;;;;6221089;23;20012;-88
2022/06/03 03:17:39;;;;;;;5.50;2.67;;;;;;;;;;6221344;23;20335;-90
2022/06/03 03:20:23;;;;;;;3.80;2.63;;;;;;;;;;6220986;23;20004;-89
2022/06/03 03:22:49;;;;;;;4.07;2.72;;;;;;;;;;6221092;23;20345;-88
2022/06/03 03:25:21;;;;;;;4.20;2.42;;;;;;;;;;6221147;23;20004;-87
2022/06/03 03:28:06;;;;;;;5.20;2.80;;;;;;;;;;6221442;23;20429;-91
2022/06/03 03:30:51;;;;;;;3.90;2.67;;;;;;;;;;6220814;23;20004;-87
2022/06/03 03:33:32;;;;;;;5.82;2.83;;;;;;;;;;6221179;23;20004;-88
2022/06/03 03:36:10;;;;;;;4.78;2.80;;;;;;;;;;6221000;23;20008;-88
2022/06/03 03:38:36;;;;;;;4.40;2.50;;;;;;;;;;6221044;23;20012;-88
2022/06/03 03:41:21;;;;;;;4.07;2.75;;;;;;;;;;6221007;23;20083;-86
2022/06/03 03:44:06;;;;;;;5.85;2.63;;;;;;;;;;6220934;23;20012;-89
2022/06/03 03:46:47;;;;;;;3.63;2.70;;;;;;;;;;6220968;23;20004;-90
2022/06/03 03:49:38;;;;;;;4.93;3.03;;;;;;;;;;6220988;23;20016;-89
2022/06/03 03:52:13;;;;;;;4.38;2.63;;;;;;;;;;6220917;23;20011;-91
2022/06/03 03:54:40;;;;;;;5.10;2.85;;;;;;;;;;6222198;23;20433;-88
2022/06/03 03:57:21;;;;;;;4.88;2.80;;;;;;;;;;6222638;23;20002;-89
2022/06/03 04:00:06;;;;;;;4.18;2.50;;;;;;;;;;6221002;23;20007;-86
2022/06/03 04:02:51;;;;;;;5.75;2.33;;;;;;;;;;6221098;23;20009;-86
2022/06/03 04:05:38;;;;;;;6.32;2.35;;;;;;;;;;6221347;23;20340;-88
2022/06/03 04:08:19;;;;;;;4.65;2.00;;;;;;;;;;6225332;23;20421;-88
2022/06/03 04:10:51;;;;;;;2.80;2.08;;;;;;;;;;6220908;23;20036;-85
2022/06/03 04:13:30;;;;;;;4.38;2.10;;;;;;;;;;6220543;23;20004;-87
2022/06/03 04:16:14;;;;;;;4.22;2.30;;;;;;;;;;6220984;23;20004;-90
2022/06/03 04:18:40;;;;;;;6.25;1.98;;;;;;;;;;6220924;23;20496;-88
2022/06/03 04:21:18;;;;;;;3.03;1.80;;;;;;;;;;6220968;23;20012;-88
2022/06/03 04:24:03;;;;;;;5.65;2.10;;;;;;;;;;6220771;23;20016;-89
2022/06/03 04:26:52;;;;;;;5.00;1.70;;;;;;;;;;6220727;23;20058;-89
2022/06/03 04:29:37;;;;;;;2.90;1.77;;;;;;;;;;6185162;23;20033;-91
2022/06/03 04:32:21;;;;;;;7.05;1.73;;;;;;;;;;6161052;23;20343;-87
2022/06/03 04:35:07;;;;;;;3.50;1.58;;;;;;;;;;6160194;23;20324;-88
2022/06/03 04:37:34;;;;;;;2.83;1.60;;;;;;;;;;6144428;23;20024;-89
2022/06/03 04:40:32;;;;;;;2.67;1.50;;;;;;;;;;6178358;23;20012;-87
2022/06/03 04:43:13;;;;;;;3.65;1.50;;;;;;;;;;6134696;23;20013;-87
2022/06/03 04:45:57;;;;;;;2.92;1.30;;;;;;;;;;6161410;23;20009;-87
2022/06/03 04:49:00;;;;;;;3.70;1.80;;;;;;;;;;6161420;23;20024;-89
2022/06/03 04:51:55;;;;;;;3.35;1.63;;;;;;;;;;6162413;23;20005;-89
2022/06/03 04:54:36;;;;;;;3.35;1.60;;;;;;;;;;6162531;23;20009;-87
2022/06/03 04:57:29;;;;;;;3.60;1.30;;;;;;;;;;6162756;23;20005;-85
2022/06/03 04:59:59;;;;;;;2.20;1.30;;;;;;;;;;6183477;23;20004;-87
2022/06/03 05:02:41;;;;;;;3.55;1.45;;;;;;;;;;6221703;23;20400;-87
2022/06/03 05:05:26;;;;;;;2.15;1.20;;;;;;;;;;6222105;23;20004;-85
2022/06/03 05:08:14;;;;;;;4.15;1.50;;;;;;;;;;6223973;23;20028;-85
2022/06/03 05:10:56;;;;;;;3.03;1.30;;;;;;;;;;6221711;23;20004;-85
2022/06/03 05:13:42;;;;;;;2.38;1.30;;;;;;;;;;6222193;23;20008;-85
2022/06/03 05:16:26;;;;;;;2.28;1.50;;;;;;;;;;6221980;23;20004;-87
2022/06/03 05:18:53;;;;;;;2.80;1.50;;;;;;;;;;6248635;23;20491;-84
2022/06/03 05:21:37;;;;;;;2.72;1.20;;;;;;;;;;6221903;23;20008;-84
2022/06/03 05:24:22;;;;;;;2.08;1.20;;;;;;;;;;6221617;23;20019;-90
2022/06/03 05:27:06;;;;;;;2.67;1.40;;;;;;;;;;6221692;23;20008;-91
2022/06/03 05:29:51;;;;;;;3.72;1.42;;;;;;;;;;6221535;23;20035;-85
2022/06/03 05:32:20;;;;;;;5.57;1.50;;;;;;;;;;6221744;23;20032;-84
2022/06/03 05:35:08;;;;;;;5.50;1.30;;;;;;;;;;6248127;23;20091;-91
2022/06/03 05:37:53;;;;;;;2.92;1.77;;;;;;;;;;6221833;23;20421;-82
2022/06/03 05:40:33;;;;;;;2.22;1.50;;;;;;;;;;6252927;23;20026;-91
2022/06/03 05:43:02;;;;;;;2.63;1.42;;;;;;;;;;6221338;23;20016;-92
2022/06/03 05:45:32;;;;;;;2.38;1.60;;;;;;;;;;6221531;23;20028;-85
2022/06/03 05:48:16;;;;;;;5.55;1.83;;;;;;;;;;6221262;23;20016;-84
2022/06/03 05:51:00;;;;;;;2.78;1.30;;;;;;;;;;6221279;23;20314;-95
2022/06/03 05:53:54;;;;;;;2.50;1.52;;;;;;;;;;6222860;23;20012;-93
2022/06/03 05:56:40;;;;;;;4.05;1.63;;;;;;;;;;6243761;23;20011;-90
2022/06/03 05:59:26;;;;;;;3.58;1.75;;;;;;;;;;6222759;23;20413;-90
2022/06/03 06:02:13;;;;;;;2.83;1.65;;;;;;;;;;6221428;23;20027;-90
2022/06/03 06:05:01;;;;;;;4.00;1.70;;;;;;;;;;6221391;23;20011;-88
2022/06/03 06:07:36;;;;;;;6.32;1.75;;;;;;;;;;6223677;23;20008;-92
2022/06/03 06:10:09;;;;;;;6.50;2.20;;;;;;;;;;6222061;23;20065;-88
2022/06/03 06:12:35;;;;;;;;;;;;;;;;;;6226721;23;20007;-89
2022/06/03 06:15:20;;;;;;;3.47;1.60;;;;;;;;;;6225843;23;19900;-87
2022/06/03 06:18:10;;;;;;;2.97;1.92;;;;;;;;;;6252261;23;20051;-96
2022/06/03 06:21:15;;;;;;;6.40;2.10;;;;;;;;;;6228819;23;20063;-95
2022/06/03 06:24:01;;;;;;;4.57;2.33;;;;;;;;;;6226380;23;20040;-93
2022/06/03 06:26:27;;;;;;;4.07;2.20;;;;;;;;;;6163854;23;20005;-87
2022/06/03 06:29:15;;;;;;;3.85;2.60;;;;;;;;;;6221976;23;20011;-96
2022/06/03 06:32:00;;;;;;;5.53;2.20;;;;;;;;;;6223715;23;20000;-94
2022/06/03 06:34:59;;;;;;;3.05;1.70;;;;;;;;;;6222066;23;20032;-86
2022/06/03 06:37:37;;;;;;;4.65;2.42;;;;;;;;;;6101097;23;20043;-87
2022/06/03 06:40:22;;;;;;;5.80;2.33;;;;;;;;;;6101164;23;20006;-95
2022/06/03 06:45:59;;;;;;;6.93;2.35;;;;;;;;;;6129435;23;20017;-95
2022/06/03 06:48:33;;;;;;;5.10;2.50;;;;;;;;;;6220469;23;20042;-94
2022/06/03 06:50:58;;;;;;;;;;;;;;;;;;6216879;23;20023;-87
2022/06/03 06:53:34;;;;;;;7.65;2.83;;;;;;;;;;6219277;23;19923;-83
2022/06/03 06:59:07;;;;;;;5.05;2.88;;;;;;;;;;6250288;23;20021;-93
2022/06/03 07:04:42;;;;;;;5.00;2.50;;;;;;;;;;6247854;23;20086;-83
2022/06/03 07:07:27;;;;;;;5.28;2.50;;;;;;;;;;6222105;23;20000;-85
2022/06/03 07:10:06;;;;;;;3.67;2.33;;;;;;;;;;6222417;23;20004;-89
2022/06/03 07:12:51;;;;;;;4.07;2.53;;;;;;;;;;6221453;23;20426;-89
2022/06/03 07:15:45;;;;;;;3.58;2.70;;;;;;;;;;6225678;23;20452;-92
2022/06/03 07:21:09;;;;;;;5.75;2.97;;;;;;;;;;6246104;23;20011;-75
2022/06/03 07:23:40;;;;;;;5.05;2.70;;;;;;;;;;6219019;23;20016;-79
2022/06/03 07:26:07;;;;;;;3.55;2.50;;;;;;;;;;6246978;23;19996;-80
2022/06/03 07:28:42;;;;;;;5.95;2.78;;;;;;;;;;6219237;23;20004;-80
2022/06/03 07:31:10;;;;;;;5.10;2.90;;;;;;;;;;6219364;23;20020;-78
2022/06/03 07:33:43;;;;;;;5.47;2.72;;;;;;;;;;6246960;23;20054;-80
2022/06/03 08:46:21;;;;;;;3.63;1.58;;;;;;;;;;6165025;23;21515;31
2022/06/03 08:48:51;;;;;;;3.63;1.67;;;;;;;;;;6123990;23;20076;-86
2022/06/03 08:51:26;;;;;;;2.63;1.40;;;;;;;;;;6125956;23;20010;-87
2022/06/03 08:53:58;;;;;;;6.35;1.50;;;;;;;;;;6125424;23;20010;-92
2022/06/03 08:56:24;;;;;;;;;;;;;;;;;;6125821;23;20012;-90
2022/06/03 08:58:54;;;;;;;4.97;1.60;;;;;;;;;;6125315;23;19975;-87
2022/06/03 09:01:29;;;;;;;3.65;1.38;;;;;;;;;;6124804;23;20006;-89
2022/06/03 09:04:14;;;;;;;5.88;1.65;;;;;;;;;;6101077;23;20020;-82
2022/06/03 09:06:46;;;;;;;3.30;1.60;;;;;;;;;;6125084;23;20002;-85
2022/06/03 09:09:25;;;;;;;4.20;1.65;;;;;;;;;;6124961;23;20450;-85
2022/06/03 09:12:10;;;;;;;2.75;1.33;;;;;;;;;;6124684;23;20420;-82
2022/06/03 09:14:40;;;;;;;2.28;1.17;;;;;;;;;;6124563;23;20017;-85
2022/06/03 09:17:12;;;;;;;2.40;1.10;;;;;;;;;;6126595;23;20084;-86
2022/06/03 09:19:40;;;;;;;1.67;1.10;;;;;;;;;;6126602;23;20002;-88
2022/06/03 09:22:26;;;;;;;4.00;1.13;;;;;;;;;;6125352;23;20022;-85
2022/06/03 09:24:55;;;;;;;2.80;1.20;;;;;;;;;;6100616;23;20017;-85
2022/06/03 09:27:21;;;;;;;2.05;1.02;;;;;;;;;;6100380;23;20006;-84
2022/06/03 09:29:52;;;;;;;2.55;1.08;;;;;;;;;;6125742;23;20010;-87
2022/06/03 09:32:19;;;;;;;2.38;1.10;;;;;;;;;;6102726;23;20013;-88
2022/06/03 09:34:47;;;;;;;3.85;1.20;;;;;;;;;;6127523;23;20444;-86
2022/06/03 09:37:16;;;;;;;2.33;1.25;;;;;;;;;;6126882;23;20002;-86
2022/06/03 09:39:44;;;;;;;4.25;1.42;;;;;;;;;;6102596;23;20002;-86
2022/06/03 09:42:12;;;;;;;1.50;1.00;;;;;;;;;;6126715;23;20013;-84
2022/06/03 09:44:39;;;;;;;2.67;1.30;;;;;;;;;;6127115;23;20009;-88
2022/06/03 09:47:07;;;;;;;5.38;1.48;;;;;;;;;;6137215;23;20427;-86
2022/06/03 09:49:33;;;;;;;3.28;1.40;;;;;;;;;;6156532;23;20068;-85
2022/06/03 09:52:02;;;;;;;3.38;1.33;;;;;;;;;;6156505;23;20013;-85
2022/06/03 09:54:35;;;;;;;2.47;1.10;;;;;;;;;;6156150;23;20041;-86
2022/06/03 09:57:16;;;;;;;3.90;0.90;;;;;;;;;;6156240;23;20041;-84
2022/06/03 09:59:50;;;;;;;2.72;1.27;;;;;;;;;;6156872;23;20005;-86
2022/06/03 10:02:16;;;;;;;2.78;1.23;;;;;;;;;;6156334;23;20092;-85
2022/06/03 10:04:42;;;;;;;4.05;0.90;;;;;;;;;;6157744;23;20451;-86
2022/06/03 10:07:09;;;;;;;5.38;1.27;;;;;;;;;;6155725;23;20001;-85
2022/06/03 10:18:05;;;;;;;2.63;1.00;;;;;;;;;;6157666;23;20032;-85
2022/06/03 10:20:34;;;;;;;2.10;1.10;;;;;;;;;;6156075;23;20088;-87
2022/06/03 10:23:02;;;;;;;2.20;1.00;;;;;;;;;;6155910;23;20032;-87
2022/06/03 10:25:28;;;;;;;1.63;0.90;;;;;;;;;;6155939;23;20005;-86
2022/06/03 10:27:55;;;;;;;3.03;1.00;;;;;;;;;;6156357;23;20002;-85
2022/06/03 10:30:28;;;;;;;5.65;1.08;;;;;;;;;;6157256;23;20015;-85
2022/06/03 10:32:54;;;;;;;2.38;1.02;;;;;;;;;;6155512;23;20009;-84
2022/06/03 10:35:26;;;;;;;2.75;1.00;;;;;;;;;;6155186;23;20391;-85
2022/06/03 10:38:00;;;;;;;3.92;1.10;;;;;;;;;;6155387;23;20447;-82
2022/06/03 10:40:28;;;;;;;4.47;1.40;;;;;;;;;;6155276;23;20009;-83
2022/06/03 10:42:58;;;;;;;2.08;1.00;;;;;;;;;;6154910;23;20013;-83
2022/06/03 10:45:36;;;;;;;4.90;1.00;;;;;;;;;;6154982;23;20005;-84
2022/06/03 10:48:25;;;;;;;4.35;1.08;;;;;;;;;;6154997;23;20033;-95
2022/06/03 10:51:12;;;;;;;2.35;1.25;;;;;;;;;;6157190;23;20506;-81
2022/06/03 11:01:55;;;;;;;2.85;1.08;;;;;;;;;;6157170;23;20100;-82
2022/06/03 11:04:27;;;;;;;3.33;1.08;;;;;;;;;;6155379;23;20017;-76
2022/06/03 11:06:53;;;;;;;2.17;1.00;;;;;;;;;;6156033;23;20006;-85
2022/06/03 11:09:21;;;;;;;3.08;1.05;;;;;;;;;;6171271;23;20005;-81
2022/06/03 11:12:09;;;;;;;2.53;1.17;;;;;;;;;;6160978;23;20002;-84
2022/06/03 11:14:37;;;;;;;1.88;1.30;;;;;;;;;;6130712;23;20037;-84
2022/06/03 11:17:05;;;;;;;3.15;1.35;;;;;;;;;;6155518;23;20009;-85
2022/06/03 11:19:36;;;;;;;2.63;1.48;;;;;;;;;;6155161;23;20001;-84
2022/06/03 11:22:32;;;;;;;3.03;1.63;;;;;;;;;;6155157;23;20367;-82
2022/06/03 11:24:58;;;;;;;2.55;1.60;;;;;;;;;;6112330;23;20009;-84
2022/06/03 11:27:29;;;;;;;3.85;1.80;;;;;;;;;;6155671;23;20001;-81
2022/06/03 11:29:57;;;;;;;4.28;1.90;;;;;;;;;;6155225;23;20005;-83
2022/06/03 11:32:27;;;;;;;3.00;1.88;;;;;;;;;;6155349;23;20091;-86
2022/06/03 11:34:55;;;;;;;2.70;1.85;;;;;;;;;;6154455;23;20339;-84
2022/06/03 11:37:27;;;;;;;3.50;1.90;;;;;;;;;;6154875;23;20058;-82
2022/06/03 11:40:00;;;;;;;2.95;1.67;;;;;;;;;;6155099;23;20010;-80
2022/06/03 11:42:50;;;;;;;2.72;1.60;;;;;;;;;;6154867;23;20010;-81
2022/06/03 11:45:18;;;;;;;3.13;1.88;;;;;;;;;;6118873;23;20115;-80
2022/06/03 11:48:02;;;;;;;2.72;1.70;;;;;;;;;;6154770;23;20443;-84
2022/06/03 11:50:29;;;;;;;3.58;1.60;;;;;;;;;;6154841;23;20001;-83
2022/06/03 11:52:56;;;;;;;2.80;1.55;;;;;;;;;;6154766;23;20005;-81
2022/06/03 11:55:23;;;;;;;3.03;1.67;;;;;;;;;;6154967;23;20037;-82
2022/06/03 11:58:09;;;;;;;2.75;1.73;;;;;;;;;;6155456;23;20005;-81
2022/06/03 12:00:41;;;;;;;2.80;1.80;;;;;;;;;;6155953;23;20477;-82
2022/06/03 12:03:20;;;;;;;4.32;1.77;;;;;;;;;;6154862;23;20040;-80
2022/06/03 12:05:48;;;;;;;2.25;1.60;;;;;;;;;;6154936;23;20008;-81
2022/06/03 12:08:33;;;;;;;2.75;1.73;;;;;;;;;;6154636;23;20006;-80
2022/06/03 12:11:02;;;;;;;2.50;1.80;;;;;;;;;;6154944;23;20001;-81
2022/06/03 12:13:31;;;;;;;5.97;1.77;;;;;;;;;;6154906;23;20012;-78
2022/06/03 12:15:57;;;;;;;4.07;1.65;;;;;;;;;;6154750;23;20432;-80
2022/06/03 12:18:32;;;;;;;3.58;1.85;;;;;;;;;;6155399;23;20064;-85
2022/06/03 12:21:14;;;;;;;6.53;1.65;;;;;;;;;;6154551;23;20002;-84
2022/06/03 12:23:46;;;;;;;3.10;1.40;;;;;;;;;;6154702;23;20013;-84
2022/06/03 12:26:21;;;;;;;4.60;1.77;;;;;;;;;;6154831;23;20001;-83
2022/06/03 12:28:49;;;;;;;2.33;1.30;;;;;;;;;;6156154;23;20020;-85
2022/06/03 12:31:15;;;;;;;5.03;1.50;;;;;;;;;;6154479;23;20040;-80
2022/06/03 12:33:44;;;;;;;2.67;1.60;;;;;;;;;;6154526;23;20014;-88
2022/06/03 12:36:11;;;;;;;3.72;1.63;;;;;;;;;;6154404;23;20029;-86
2022/06/03 12:38:43;;;;;;;3.10;1.30;;;;;;;;;;6154683;23;20014;-82
2022/06/03 12:41:09;;;;;;;4.05;1.67;;;;;;;;;;6154672;23;20001;-81
2022/06/03 12:43:45;;;;;;;3.63;1.60;;;;;;;;;;6156055;23;20414;-86
2022/06/03 12:46:31;;;;;;;3.05;1.58;;;;;;;;;;6157045;23;20052;-85
2022/06/03 12:48:57;;;;;;;2.95;1.52;;;;;;;;;;6154114;23;20088;-76
2022/06/03 12:51:25;;;;;;;3.22;1.50;;;;;;;;;;6154265;23;20427;-76
2022/06/03 12:54:11;;;;;;;3.58;1.65;;;;;;;;;;6153910;23;20010;-78
2022/06/03 12:56:49;;;;;;;3.88;1.65;;;;;;;;;;6114022;23;20152;-79
2022/06/03 12:59:35;;;;;;;4.55;1.25;;;;;;;;;;6154172;23;20424;-82
2022/06/03 13:02:04;;;;;;;2.47;1.40;;;;;;;;;;6114638;23;20012;-80
2022/06/03 13:04:30;;;;;;;4.20;1.50;;;;;;;;;;6155383;23;20343;-80
2022/06/03 13:07:16;;;;;;;2.22;1.40;;;;;;;;;;6156427;23;20006;-80
2022/06/03 13:09:53;;;;;;;2.40;1.33;;;;;;;;;;6150859;23;20022;-84
2022/06/03 13:12:22;;;;;;;1.98;1.60;;;;;;;;;;6154882;23;20005;-81
2022/06/03 13:14:49;;;;;;;4.45;1.70;;;;;;;;;;6155643;23;20028;-82
2022/06/03 13:17:34;;;;;;;5.05;1.75;;;;;;;;;;6156598;23;20009;-82
2022/06/03 13:20:01;;;;;;;3.13;1.50;;;;;;;;;;6156379;23;20013;-81
2022/06/03 13:22:29;;;;;;;3.03;1.40;;;;;;;;;;6156277;23;20495;-83
2022/06/03 13:25:13;;;;;;;2.30;1.48;;;;;;;;;;6155751;23;20006;-83
2022/06/03 13:28:01;;;;;;;6.65;1.75;;;;;;;;;;6156051;23;20002;-88
2022/06/03 13:30:34;;;;;;;5.32;2.00;;;;;;;;;;6155951;23;20041;-86
2022/06/03 13:33:01;;;;;;;3.08;1.40;;;;;;;;;;6156852;23;20005;-83
2022/06/03 13:35:30;;;;;;;2.30;1.52;;;;;;;;;;6157708;23;20068;-83
2022/06/03 13:37:56;;;;;;;4.03;1.50;;;;;;;;;;6156292;23;20059;-83
2022/06/03 13:40:25;;;;;;;2.70;1.50;;;;;;;;;;6156745;23;20431;-89
2022/06/03 13:43:02;;;;;;;3.05;1.50;;;;;;;;;;6156564;23;20148;-82
2022/06/03 13:45:40;;;;;;;2.65;1.50;;;;;;;;;;6157039;23;20007;-89
2022/06/03 13:48:11;;;;;;;3.05;1.42;;;;;;;;;;6158523;23;20025;-84
2022/06/03 13:50:38;;;;;;;3.00;1.40;;;;;;;;;;6156396;23;20005;-83
2022/06/03 13:53:07;;;;;;;2.58;1.45;;;;;;;;;;6156888;23;20048;-84
2022/06/03 13:55:37;;;;;;;2.58;1.40;;;;;;;;;;6156929;23;20033;-83
2022/06/03 13:58:08;;;;;;;3.25;1.40;;;;;;;;;;6157015;23;20005;-83
2022/06/03 14:00:40;;;;;;;4.20;1.67;;;;;;;;;;6156550;23;20006;-91
2022/06/03 14:03:15;;;;;;;3.63;1.70;;;;;;;;;;6156836;23;20147;-84
2022/06/03 14:06:00;;;;;;;7.38;1.70;;;;;;;;;;6156765;23;20006;-84
2022/06/03 14:08:28;;;;;;;5.30;1.70;;;;;;;;;;6156157;23;20271;-83
2022/06/03 14:11:00;;;;;;;2.92;1.55;;;;;;;;;;6156245;23;20479;-83
2022/06/03 14:13:38;;;;;;;4.82;1.55;;;;;;;;;;6156344;23;20009;-89
2022/06/03 14:16:08;;;;;;;4.15;1.80;;;;;;;;;;6155863;23;20002;-83
2022/06/03 14:18:53;;;;;;;2.38;1.38;;;;;;;;;;6156581;23;20017;-84
2022/06/03 14:21:41;;;;;;;4.93;1.70;;;;;;;;;;6156198;23;20001;-85
2022/06/03 14:24:21;;;;;;;4.00;1.73;;;;;;;;;;6176405;23;20032;-84
2022/06/03 14:27:14;;;;;;;4.93;1.77;;;;;;;;;;6168886;23;20052;-84
2022/06/03 14:29:52;;;;;;;4.30;1.60;;;;;;;;;;6128374;23;20320;-85
2022/06/03 14:32:21;;;;;;;2.60;1.58;;;;;;;;;;6157803;23;20001;-88
2022/06/03 14:34:47;;;;;;;3.72;1.73;;;;;;;;;;6156178;23;20010;-85
2022/06/03 14:37:15;;;;;;;4.70;1.58;;;;;;;;;;6156137;23;20343;-83
2022/06/03 14:39:43;;;;;;;3.67;1.50;;;;;;;;;;6156246;23;20049;-84
2022/06/03 14:42:10;;;;;;;4.28;1.75;;;;;;;;;;6155868;23;20380;-88
2022/06/03 14:44:39;;;;;;;3.03;1.48;;;;;;;;;;6156092;23;20018;-85
2022/06/03 14:47:08;;;;;;;2.17;1.40;;;;;;;;;;6155987;23;20017;-84
2022/06/03 14:49:41;;;;;;;3.67;2.00;;;;;;;;;;6156305;23;20010;-83
2022/06/03 14:52:10;;;;;;;3.58;1.70;;;;;;;;;;6156044;23;20044;-86
2022/06/03 14:54:40;;;;;;;3.63;1.40;;;;;;;;;;6155364;23;20005;-84
2022/06/03 14:57:07;;;;;;;4.40;1.50;;;;;;;;;;6155860;23;20006;-81
2022/06/03 14:59:45;;;;;;;6.60;1.60;;;;;;;;;;6154075;23;20051;-77
2022/06/03 15:02:24;;;;;;;2.58;1.58;;;;;;;;;;6155786;23;20005;-79
2022/06/03 15:04:53;;;;;;;3.72;1.73;;;;;;;;;;6154375;23;20462;-79
2022/06/03 15:07:21;;;;;;;6.80;1.77;;;;;;;;;;6155698;23;20006;-76
2022/06/03 15:09:49;;;;;;;4.88;1.77;;;;;;;;;;6156861;23;20069;-77
2022/06/03 15:12:20;;;;;;;2.60;1.42;;;;;;;;;;6156101;23;20009;-87
2022/06/03 15:14:46;;;;;;;4.47;1.65;;;;;;;;;;6155592;23;20435;-79
2022/06/03 15:17:15;;;;;;;6.15;1.60;;;;;;;;;;6154980;23;20013;-79
2022/06/03 15:19:50;;;;;;;3.97;1.50;;;;;;;;;;6131472;23;20088;-77
2022/06/03 15:22:30;;;;;;;2.97;1.65;;;;;;;;;;6154785;23;20002;-78
2022/06/03 15:24:59;;;;;;;3.20;1.60;;;;;;;;;;6156245;23;20336;-75
2022/06/03 15:27:27;;;;;;;3.15;1.50;;;;;;;;;;6156389;23;19998;-80
2022/06/03 15:29:54;;;;;;;4.95;1.90;;;;;;;;;;6156227;23;20005;-86
2022/06/03 15:32:20;;;;;;;3.35;1.40;;;;;;;;;;6156270;23;20033;-86
2022/06/03 15:34:47;;;;;;;4.80;1.67;;;;;;;;;;6156187;23;20009;-90
2022/06/03 15:37:13;;;;;;;3.40;1.52;;;;;;;;;;6155994;23;20002;-85
2022/06/03 15:39:39;;;;;;;5.35;1.60;;;;;;;;;;6156071;23;20009;-91
2022/06/03 15:42:20;;;;;;;2.50;1.55;;;;;;;;;;6156155;23;20005;-89
2022/06/03 15:44:46;;;;;;;2.55;1.50;;;;;;;;;;6156138;23;20013;-86
2022/06/03 15:47:12;;;;;;;4.32;1.73;;;;;;;;;;6163820;23;20041;-85
2022/06/03 15:49:40;;;;;;;3.47;1.75;;;;;;;;;;6156508;23;20315;-91
2022/06/03 15:52:08;;;;;;;4.22;1.67;;;;;;;;;;6156256;23;20033;-92
2022/06/03 15:54:36;;;;;;;2.83;1.58;;;;;;;;;;6158906;23;20005;-93
2022/06/03 15:57:14;;;;;;;3.75;1.73;;;;;;;;;;6158256;23;20009;-90
2022/06/03 15:59:49;;;;;;;4.57;2.13;;;;;;;;;;6155998;23;20017;-87
2022/06/03 16:02:15;;;;;;;5.30;2.00;;;;;;;;;;6155877;23;20006;-86
2022/06/03 16:04:47;;;;;;;8.68;4.70;;;;;;;;;;6155941;23;20013;-86
2022/06/03 16:07:32;;;;;;;6.00;2.00;;;;;;;;;;6156143;23;20010;-91
2022/06/03 16:10:07;;;;;;;5.55;1.60;;;;;;;;;;6156289;23;20002;-93
2022/06/03 16:12:40;;;;;;;2.45;1.70;;;;;;;;;;6155837;23;20327;-90
2022/06/03 16:15:28;;;;;;;2.92;1.55;;;;;;;;;;6155908;23;20005;-85
2022/06/03 16:17:54;;;;;;;3.22;1.60;;;;;;;;;;6155833;23;20428;-88
2022/06/03 16:20:21;;;;;;;5.60;1.55;;;;;;;;;;6155421;23;20005;-83
2022/06/03 16:22:53;;;;;;;3.50;1.80;;;;;;;;;;6154557;23;20025;-78
2022/06/03 16:25:21;;;;;;;4.75;1.90;;;;;;;;;;6154613;23;20089;-87
2022/06/03 16:27:54;;;;;;;4.38;1.75;;;;;;;;;;6156135;23;20012;-76
2022/06/03 16:30:23;;;;;;;3.83;1.90;;;;;;;;;;6153959;23;20002;-78
2022/06/03 16:32:49;;;;;;;2.95;1.80;;;;;;;;;;6154695;23;20005;-87
2022/06/03 16:35:26;;;;;;;2.88;1.63;;;;;;;;;;6155290;23;20072;-86
2022/06/03 16:37:52;;;;;;;2.78;1.60;;;;;;;;;;6154817;23;20032;-81
2022/06/03 16:40:37;;;;;;;4.75;1.65;;;;;;;;;;6156084;23;20029;-83
2022/06/03 16:43:13;;;;;;;4.25;1.35;;;;;;;;;;6158270;23;20025;-85
2022/06/03 16:48:30;;;;;;;4.22;1.58;;;;;;;;;;6158722;23;20036;-86
2022/06/03 16:50:56;;;;;;;3.67;1.52;;;;;;;;;;6132748;23;20009;-80
2022/06/03 16:53:27;;;;;;;5.30;1.50;;;;;;;;;;6157351;23;20025;-80
2022/06/03 16:55:55;;;;;;;3.65;1.30;;;;;;;;;;6158596;23;20335;-81
2022/06/03 16:58:21;;;;;;;2.20;1.50;;;;;;;;;;6157223;23;20005;-87
2022/06/03 17:00:52;;;;;;;3.28;1.67;;;;;;;;;;6157276;23;20006;-86
2022/06/03 17:03:26;;;;;;;2.75;1.50;;;;;;;;;;6157163;23;20024;-91
2022/06/03 17:05:53;;;;;;;3.28;1.58;;;;;;;;;;6157293;23;20033;-88
2022/06/03 17:08:43;;;;;;;2.72;1.40;;;;;;;;;;6132869;23;20010;-87
2022/06/03 17:11:11;;;;;;;2.47;1.30;;;;;;;;;;6117837;23;20002;-88
2022/06/03 17:13:37;;;;;;;5.60;1.60;;;;;;;;;;6132522;23;20020;-88
2022/06/03 17:16:04;;;;;;;3.20;1.52;;;;;;;;;;6132818;23;20006;-88
2022/06/03 17:18:31;;;;;;;3.45;1.58;;;;;;;;;;6132875;23;20016;-91
2022/06/03 17:20:57;;;;;;;2.67;1.60;;;;;;;;;;6157434;23;20005;-88
2022/06/03 17:23:33;;;;;;;1.85;1.40;;;;;;;;;;6132528;23;20013;-88
2022/06/03 17:26:01;;;;;;;3.22;1.50;;;;;;;;;;6132498;23;20016;-86
2022/06/03 17:28:46;;;;;;;1.88;1.25;;;;;;;;;;6131995;23;20009;-92